59NC weather

Mclean Brothers Airport
Gibsonville, North Carolina, United States

Public forecast

Using degrees Fahrenheit for public forecast. Weather courtesy of forecast.io.

METAR (pilot weather report)

Closest report is Burlington Alamance Regional Airport, 4.9 nm (9.0 km) SE. Retrieved 2019/07/19 00:06 UTC (35 minutes ago):

KBUY 190006Z AUTO 24003KT 10SM FEW110 24/22 A2994 RMK AO2 RAE05 P0000 T02440222

TAF (pilot weather forecast)

Forecast is more than 12 hours old.

Closest forecast is Piedmont Triad International Airport, 18.5 nm (34.3 km) W. Retrieved 2019/07/18 00:36 UTC (1 day ago):

TAF KGSO 182333Z 1900/1924 28005KT P6SM BKN100 BKN250 FM191600 32005KT P6SM SCT040 BKN150